Time;durP1;ratioP1;P1;durP2;ratioP2;P2;SDS_P1;SDS_P2;PMS_P1;PMS_P2;Temp;Humidity;BMP_temperature;BMP_pressure;BME280_temperature;BME280_humidity;BME280_pressure;Samples;Min_cycle;Max_cycle;Signal;HPM_P1;HPM_P2
2023/03/20 00:02:07;;;;;;;0.40;0.40;;;7.20;98.50;;;;;;5032146;28;20466;-70
2023/03/20 00:04:34;;;;;;;3.30;0.60;;;7.20;92.50;;;;;;5029482;28;20910;-69
2023/03/20 00:07:00;;;;;;;0.32;0.32;;;7.20;82.20;;;;;;5029520;28;20435;-70
2023/03/20 00:09:27;;;;;;;0.20;0.20;;;7.20;68.00;;;;;;5031680;28;20477;-70
2023/03/20 00:11:54;;;;;;;0.65;0.50;;;7.20;52.60;;;;;;5029399;28;20920;-69
2023/03/20 00:14:23;;;;;;;0.53;0.53;;;7.30;38.50;;;;;;5031438;28;20431;-70
2023/03/20 00:16:51;;;;;;;0.43;0.43;;;7.30;26.50;;;;;;5032079;28;20446;-70
2023/03/20 00:19:22;;;;;;;0.30;0.30;;;7.20;16.10;;;;;;5031636;28;20431;-69
2023/03/20 00:21:49;;;;;;;0.40;0.30;;;7.30;7.30;;;;;;5029775;28;20435;-70
2023/03/20 00:24:17;;;;;;;0.80;0.50;;;7.20;1.00;;;;;;5030071;28;20526;-69
2023/03/20 00:26:45;;;;;;;0.30;0.30;;;7.20;1.00;;;;;;5028376;28;21106;-70
2023/03/20 00:29:19;;;;;;;0.70;0.70;;;7.20;1.00;;;;;;5031366;28;20427;-70
2023/03/20 00:31:52;;;;;;;0.20;0.20;;;7.20;1.00;;;;;;5029721;28;20431;-70
2023/03/20 00:34:22;;;;;;;1.10;0.40;;;7.20;1.00;;;;;;5030803;28;20882;-70
2023/03/20 00:36:50;;;;;;;0.57;0.57;;;7.20;1.00;;;;;;5028755;28;20441;-70
2023/03/20 00:39:17;;;;;;;0.60;0.60;;;7.20;1.00;;;;;;5030114;28;20435;-70
2023/03/20 00:41:52;;;;;;;0.30;0.30;;;7.20;1.00;;;;;;5029591;28;21001;-70
2023/03/20 00:44:26;;;;;;;0.28;0.28;;;7.20;1.00;;;;;;5030783;28;20435;-70
2023/03/20 00:46:59;;;;;;;0.38;0.38;;;7.20;1.00;;;;;;5030929;28;20485;-69
2023/03/20 00:49:29;;;;;;;0.43;0.43;;;7.20;1.00;;;;;;5031386;28;20447;-70
2023/03/20 00:52:01;;;;;;;0.43;0.43;;;7.20;1.00;;;;;;5029280;28;20935;-69
2023/03/20 00:54:28;;;;;;;1.00;0.50;;;7.20;1.00;;;;;;5030375;28;20435;-69
2023/03/20 00:57:04;;;;;;;0.30;0.30;;;7.20;1.00;;;;;;5029390;28;20435;-69
2023/03/20 00:59:45;;;;;;;0.40;0.40;;;7.20;1.00;;;;;;5030542;28;20419;-70
2023/03/20 01:02:11;;;;;;;0.43;0.43;;;7.20;1.00;;;;;;5030012;28;20438;-70
2023/03/20 01:04:41;;;;;;;0.45;0.45;;;7.20;1.00;;;;;;5030489;28;20431;-70
2023/03/20 01:07:14;;;;;;;0.40;0.40;;;7.20;1.00;;;;;;5030664;28;20439;-70
2023/03/20 01:09:41;;;;;;;2.10;0.65;;;7.20;1.00;;;;;;5027772;28;20431;-70
2023/03/20 01:12:11;;;;;;;0.30;0.30;;;7.20;1.00;;;;;;5030448;28;20441;-70
2023/03/20 01:14:37;;;;;;;0.50;0.50;;;7.20;1.00;;;;;;5030245;28;20439;-70
2023/03/20 01:17:05;;;;;;;0.70;0.70;;;7.20;1.00;;;;;;5030512;28;20451;-70
2023/03/20 01:19:35;;;;;;;0.43;0.43;;;7.20;1.00;;;;;;5030725;28;20437;-69
2023/03/20 01:22:02;;;;;;;0.20;0.20;;;7.20;1.00;;;;;;5030338;28;20518;-69
2023/03/20 01:24:28;;;;;;;0.60;0.60;;;7.20;1.00;;;;;;5027123;28;20455;-69
2023/03/20 01:26:55;;;;;;;0.35;0.35;;;7.20;1.00;;;;;;5030051;28;20533;-69
2023/03/20 01:29:26;;;;;;;0.80;0.50;;;7.20;1.00;;;;;;5030573;28;20423;-69
2023/03/20 01:31:53;;;;;;;0.60;0.60;;;7.20;1.00;;;;;;5023830;28;20522;-69
2023/03/20 01:34:20;;;;;;;0.95;0.85;;;7.20;1.00;;;;;;5029547;28;20431;-69
2023/03/20 01:36:49;;;;;;;0.47;0.47;;;7.30;1.00;;;;;;5028513;28;20438;-69
2023/03/20 01:39:16;;;;;;;1.70;0.82;;;7.20;1.00;;;;;;5029027;28;20525;-70
2023/03/20 01:41:47;;;;;;;0.73;0.73;;;7.30;1.00;;;;;;5028113;28;20435;-70
2023/03/20 01:44:24;;;;;;;0.50;0.50;;;7.30;1.00;;;;;;5029586;28;20435;-70
2023/03/20 01:46:54;;;;;;;0.40;0.40;;;7.30;1.00;;;;;;5027960;28;20431;-70
2023/03/20 01:49:20;;;;;;;0.47;0.47;;;7.20;1.00;;;;;;5029800;28;20427;-70
2023/03/20 01:51:48;;;;;;;0.65;0.65;;;7.20;1.00;;;;;;5030002;28;20431;-70
2023/03/20 01:54:23;;;;;;;0.70;0.63;;;7.20;1.00;;;;;;5029621;28;20433;-70
2023/03/20 01:57:14;;;;;;;1.90;0.40;;;7.20;1.00;;;;;;5017369;28;20444;-70
2023/03/20 01:59:50;;;;;;;0.75;0.75;;;7.20;1.00;;;;;;5026504;28;20437;-70
2023/03/20 02:02:22;;;;;;;0.60;0.52;;;7.20;1.00;;;;;;5030189;28;20434;-70
2023/03/20 02:04:54;;;;;;;0.40;0.40;;;7.20;1.00;;;;;;5027244;28;20466;-70
2023/03/20 02:07:23;;;;;;;0.70;0.70;;;7.20;1.00;;;;;;5029732;28;20435;-70
2023/03/20 02:09:53;;;;;;;0.20;0.20;;;7.20;1.00;;;;;;5029634;28;20461;-70
2023/03/20 02:12:27;;;;;;;0.40;0.40;;;7.20;1.00;;;;;;5027259;28;20427;-69
2023/03/20 02:14:54;;;;;;;0.73;0.73;;;7.10;1.00;;;;;;5029345;28;20433;-70
2023/03/20 02:17:21;;;;;;;0.70;0.57;;;7.10;1.00;;;;;;5029755;28;20431;-70
2023/03/20 02:20:27;;;;;;;0.52;0.52;;;7.10;1.00;;;;;;5029525;28;20449;-70
2023/03/20 02:23:13;;;;;;;0.63;0.63;;;7.10;1.00;;;;;;5028037;28;20430;-70
2023/03/20 02:25:58;;;;;;;0.50;0.50;;;7.00;1.00;;;;;;5029293;28;20431;-69
2023/03/20 02:28:46;;;;;;;0.57;0.57;;;7.10;1.00;;;;;;5027291;28;20462;-70
2023/03/20 02:31:27;;;;;;;0.67;0.67;;;7.10;1.00;;;;;;5029234;28;20484;-69
2023/03/20 02:34:13;;;;;;;0.68;0.68;;;7.10;1.00;;;;;;5028093;28;20446;-70
2023/03/20 02:36:58;;;;;;;0.70;0.52;;;7.20;1.00;;;;;;5029627;28;20847;-70
2023/03/20 02:39:45;;;;;;;0.52;0.52;;;7.20;1.00;;;;;;5029319;28;20461;-70
2023/03/20 02:42:44;;;;;;;0.73;0.73;;;7.20;1.00;;;;;;5029302;28;20821;-70
2023/03/20 02:45:17;;;;;;;3.30;0.77;;;7.30;1.00;;;;;;5027337;28;20427;-70
2023/03/20 02:48:10;;;;;;;2.30;0.97;;;7.40;1.00;;;;;;5028128;28;20430;-70
2023/03/20 02:50:49;;;;;;;0.70;0.70;;;7.40;1.00;;;;;;5033109;28;20484;-70
2023/03/20 02:53:50;;;;;;;1.48;1.38;;;7.40;1.00;;;;;;5033366;28;20449;-70
2023/03/20 02:56:53;;;;;;;1.23;1.13;;;7.50;1.00;;;;;;5030979;28;20518;-70
2023/03/20 02:59:50;;;;;;;0.75;0.75;;;7.50;1.00;;;;;;5030375;28;20438;-70
2023/03/20 03:02:22;;;;;;;1.63;0.80;;;7.50;1.00;;;;;;5031460;28;20853;-70
2023/03/20 03:04:57;;;;;;;1.23;1.20;;;7.50;1.00;;;;;;5031105;28;20500;-70
2023/03/20 03:07:29;;;;;;;1.88;1.50;;;7.50;1.00;;;;;;5032817;28;20469;-69
2023/03/20 03:10:11;;;;;;;0.85;0.75;;;7.50;1.00;;;;;;5031622;28;20422;-69
2023/03/20 03:12:42;;;;;;;1.60;0.87;;;7.50;1.00;;;;;;5032659;28;20434;-70
2023/03/20 03:15:37;;;;;;;1.00;1.00;;;7.40;1.00;;;;;;5032501;28;20435;-70
2023/03/20 03:18:14;;;;;;;0.90;0.70;;;7.40;1.00;;;;;;5015335;28;21010;-70
2023/03/20 03:20:42;;;;;;;0.63;0.63;;;7.40;1.00;;;;;;5012611;28;20911;-70
2023/03/20 03:23:19;;;;;;;0.80;0.80;;;7.40;99.90;;;;;;5012936;28;20520;-69
2023/03/20 03:25:46;;;;;;;2.27;0.83;;;7.40;99.90;;;;;;5012515;28;20769;-69
2023/03/20 03:28:37;;;;;;;0.75;0.70;;;7.40;1.00;;;;;;5012737;28;20930;-69
2023/03/20 03:31:07;;;;;;;1.30;1.05;;;7.40;1.00;;;;;;5012634;28;20516;-69
2023/03/20 03:33:38;;;;;;;0.93;0.93;;;7.30;1.00;;;;;;5028367;28;20905;-69
2023/03/20 03:36:10;;;;;;;1.17;0.97;;;7.30;1.00;;;;;;5031831;28;20435;-70
2023/03/20 03:38:43;;;;;;;1.10;1.00;;;7.30;1.00;;;;;;5029700;28;20430;-69
2023/03/20 03:41:10;;;;;;;1.20;1.08;;;7.30;1.00;;;;;;5032194;28;20466;-69
2023/03/20 03:44:06;;;;;;;4.83;0.83;;;7.40;1.00;;;;;;5031910;28;20449;-70
2023/03/20 03:46:57;;;;;;;1.20;1.10;;;7.30;1.00;;;;;;5031889;28;20466;-69
2023/03/20 03:49:29;;;;;;;5.30;0.88;;;7.40;1.00;;;;;;5030374;28;20914;-70
2023/03/20 03:52:02;;;;;;;1.37;1.10;;;7.40;1.00;;;;;;5030895;28;20434;-69
2023/03/20 03:54:39;;;;;;;1.83;1.08;;;7.40;1.00;;;;;;5029996;28;20431;-70
2023/03/20 03:57:08;;;;;;;1.20;1.20;;;7.50;1.00;;;;;;5030698;28;20445;-70
2023/03/20 03:59:43;;;;;;;1.40;1.30;;;7.50;1.00;;;;;;5031792;28;20431;-70
2023/03/20 04:02:15;;;;;;;1.50;1.40;;;7.60;1.00;;;;;;5029644;28;20435;-70
2023/03/20 04:04:45;;;;;;;1.77;1.35;;;7.60;1.00;;;;;;5031251;28;20924;-70
2023/03/20 04:07:13;;;;;;;1.70;0.98;;;7.60;1.00;;;;;;5030038;28;20433;-70
2023/03/20 04:09:40;;;;;;;1.38;1.27;;;7.60;1.00;;;;;;5030408;28;20465;-70
2023/03/20 04:12:36;;;;;;;1.10;1.10;;;7.60;1.00;;;;;;5031996;28;20426;-70
2023/03/20 04:15:04;;;;;;;1.17;1.08;;;7.70;1.00;;;;;;5031224;28;20423;-70
2023/03/20 04:17:31;;;;;;;1.58;1.52;;;7.60;1.00;;;;;;5031704;28;20435;-70
2023/03/20 04:19:58;;;;;;;1.60;1.50;;;7.70;1.00;;;;;;5030358;28;20438;-70
2023/03/20 04:22:24;;;;;;;1.27;1.23;;;7.70;1.00;;;;;;5031751;28;20434;-70
2023/03/20 04:24:57;;;;;;;1.08;1.08;;;7.70;1.00;;;;;;5031383;28;20506;-70
2023/03/20 04:27:24;;;;;;;1.70;0.90;;;7.70;1.00;;;;;;5030196;28;20438;-69
2023/03/20 04:29:53;;;;;;;1.50;1.00;;;7.70;1.00;;;;;;5031457;28;20426;-70
2023/03/20 04:32:22;;;;;;;3.33;1.80;;;7.70;1.00;;;;;;5030626;28;20427;-70
2023/03/20 04:34:49;;;;;;;1.20;1.10;;;7.70;1.00;;;;;;5024304;28;20453;-70
2023/03/20 04:37:19;;;;;;;1.13;0.98;;;7.70;1.00;;;;;;5028767;28;20435;-70
2023/03/20 04:39:46;;;;;;;1.48;1.38;;;7.70;1.00;;;;;;5030894;28;20430;-70
2023/03/20 04:42:13;;;;;;;1.63;1.27;;;7.70;1.00;;;;;;5029856;28;20481;-69
2023/03/20 04:44:40;;;;;;;0.83;0.83;;;7.70;1.00;;;;;;5029680;28;20514;-69
2023/03/20 04:47:06;;;;;;;1.35;1.35;;;7.70;1.00;;;;;;5030937;28;20431;-69
2023/03/20 04:49:36;;;;;;;2.20;0.90;;;7.70;1.00;;;;;;5028202;28;20427;-69
2023/03/20 04:52:03;;;;;;;2.50;1.60;;;7.70;1.00;;;;;;5030761;28;20437;-70
2023/03/20 04:54:33;;;;;;;1.25;1.15;;;7.80;1.00;;;;;;5028200;28;20462;-69
2023/03/20 04:56:59;;;;;;;1.33;1.10;;;7.80;1.00;;;;;;5030706;28;20441;-69
2023/03/20 04:59:26;;;;;;;0.68;0.68;;;7.80;1.00;;;;;;5030955;28;20485;-70
2023/03/20 05:01:53;;;;;;;1.90;1.23;;;7.80;1.00;;;;;;5030828;28;20522;-70
2023/03/20 05:04:20;;;;;;;2.05;1.63;;;7.90;1.00;;;;;;5030428;28;20439;-70
2023/03/20 05:06:48;;;;;;;1.10;1.02;;;7.90;1.00;;;;;;5030500;28;20421;-69
2023/03/20 05:09:15;;;;;;;2.40;2.17;;;7.90;1.00;;;;;;5029337;28;20426;-70
2023/03/20 05:11:42;;;;;;;1.48;1.00;;;7.90;99.90;;;;;;5030008;28;20810;-70
2023/03/20 05:14:10;;;;;;;2.22;1.67;;;7.90;99.90;;;;;;5030129;28;20886;-70
2023/03/20 05:16:40;;;;;;;1.40;1.13;;;7.90;99.90;;;;;;5030624;28;20861;-70
2023/03/20 05:19:07;;;;;;;1.90;1.15;;;7.90;1.00;;;;;;5030716;28;20548;-70
2023/03/20 05:21:34;;;;;;;2.83;1.40;;;7.90;1.00;;;;;;5030651;28;20426;-69
2023/03/20 05:24:04;;;;;;;1.63;1.52;;;7.90;1.00;;;;;;5028243;28;20434;-70
2023/03/20 05:26:31;;;;;;;1.80;1.70;;;7.90;99.90;;;;;;5030631;28;20426;-70
2023/03/20 05:28:57;;;;;;;1.75;1.30;;;7.90;99.90;;;;;;5028002;28;20437;-69
2023/03/20 05:31:24;;;;;;;1.65;1.55;;;7.80;99.90;;;;;;5028336;28;20817;-69
2023/03/20 05:33:51;;;;;;;1.63;1.53;;;7.80;99.90;;;;;;5029607;28;20437;-69
2023/03/20 05:36:17;;;;;;;2.35;1.67;;;7.70;99.90;;;;;;5030295;28;20435;-69
2023/03/20 05:38:44;;;;;;;1.92;1.73;;;7.70;1.00;;;;;;5030128;28;20960;-69
2023/03/20 05:41:11;;;;;;;1.63;1.45;;;7.70;1.00;;;;;;5028523;28;20514;-70
2023/03/20 05:43:38;;;;;;;1.70;1.25;;;7.70;1.00;;;;;;5028625;28;20924;-69
2023/03/20 05:46:05;;;;;;;1.83;1.73;;;7.70;1.00;;;;;;5029127;28;20484;-70
2023/03/20 05:48:32;;;;;;;2.22;1.50;;;7.70;1.00;;;;;;5028724;28;20427;-69
2023/03/20 05:50:58;;;;;;;1.50;1.40;;;7.80;1.00;;;;;;5029877;28;20431;-70
2023/03/20 05:53:25;;;;;;;4.60;2.45;;;7.80;1.00;;;;;;5027452;28;20550;-70
2023/03/20 05:55:52;;;;;;;3.05;1.85;;;7.80;1.00;;;;;;5028706;28;20434;-69
2023/03/20 05:58:18;;;;;;;0.85;0.85;;;7.80;1.00;;;;;;5029211;28;20442;-70
2023/03/20 06:00:47;;;;;;;2.13;1.30;;;7.80;1.00;;;;;;5027057;28;20436;-69
2023/03/20 06:03:14;;;;;;;1.83;1.73;;;7.70;1.00;;;;;;5028950;28;20431;-68
2023/03/20 06:05:41;;;;;;;1.73;1.63;;;7.80;1.00;;;;;;5028502;28;20509;-68
2023/03/20 06:08:08;;;;;;;1.20;1.15;;;7.80;1.00;;;;;;5028715;28;20435;-68
2023/03/20 06:10:35;;;;;;;1.65;1.55;;;7.80;1.00;;;;;;5029020;28;20518;-68
2023/03/20 06:13:02;;;;;;;1.65;1.42;;;7.80;1.00;;;;;;5027222;28;20522;-68
2023/03/20 06:15:28;;;;;;;3.35;1.98;;;7.80;1.00;;;;;;5027968;28;20484;-68
2023/03/20 06:17:55;;;;;;;2.10;1.40;;;7.90;1.00;;;;;;5026373;28;20430;-68
2023/03/20 06:20:23;;;;;;;1.88;1.77;;;7.90;1.00;;;;;;5028882;28;20438;-68
2023/03/20 06:22:50;;;;;;;1.50;1.42;;;7.90;1.00;;;;;;5025114;28;20976;-68
2023/03/20 06:25:17;;;;;;;1.90;1.00;;;7.90;1.00;;;;;;5028350;28;20437;-68
2023/03/20 06:27:46;;;;;;;2.08;1.77;;;7.90;1.00;;;;;;5009806;28;20531;-69
2023/03/20 06:30:14;;;;;;;1.27;1.17;;;7.90;1.00;;;;;;5027068;28;20427;-69
2023/03/20 06:32:41;;;;;;;1.38;1.23;;;8.00;1.00;;;;;;5028595;28;20453;-69
2023/03/20 06:35:08;;;;;;;1.75;1.40;;;7.90;1.00;;;;;;5026938;28;20465;-69
2023/03/20 06:37:35;;;;;;;1.73;1.63;;;7.90;1.00;;;;;;5027138;28;20850;-69
2023/03/20 06:40:04;;;;;;;1.90;1.50;;;7.90;1.00;;;;;;5025948;28;20442;-69
2023/03/20 06:42:30;;;;;;;1.75;1.50;;;7.90;1.00;;;;;;5028252;28;20439;-69
2023/03/20 06:44:57;;;;;;;1.90;1.27;;;7.90;1.00;;;;;;5024479;28;20962;-69
2023/03/20 06:47:24;;;;;;;1.38;1.27;;;8.00;1.00;;;;;;5026051;28;20969;-69
2023/03/20 06:49:50;;;;;;;2.08;1.45;;;7.90;1.00;;;;;;5028383;28;20434;-69
2023/03/20 06:52:20;;;;;;;1.63;1.52;;;7.90;1.00;;;;;;4965609;28;1799521;-69
2023/03/20 06:54:47;;;;;;;2.00;1.00;;;8.00;1.00;;;;;;5021470;28;20985;-69
2023/03/20 06:57:17;;;;;;;3.08;1.95;;;8.00;1.00;;;;;;5009443;28;20437;-69
2023/03/20 06:59:46;;;;;;;2.88;1.33;;;8.00;1.00;;;;;;5009783;28;20428;-69
2023/03/20 07:02:13;;;;;;;1.60;1.50;;;8.10;1.00;;;;;;5029162;28;20454;-69
2023/03/20 07:04:40;;;;;;;2.00;1.90;;;8.20;1.00;;;;;;5028490;28;20431;-69
2023/03/20 07:07:10;;;;;;;2.28;1.63;;;;;;;;;;5029049;28;20429;-69
2023/03/20 07:09:39;;;;;;;1.48;1.38;;;;;;;;;;5029090;28;20426;-68
2023/03/20 07:12:12;;;;;;;1.40;1.30;;;;;;;;;;5029003;28;20912;-68
2023/03/20 07:14:43;;;;;;;3.00;1.50;;;;;;;;;;5028945;28;20426;-68
2023/03/20 07:17:11;;;;;;;1.70;1.58;;;;;;;;;;5027164;28;20519;-68
2023/03/20 07:19:38;;;;;;;2.42;1.52;;;;;;;;;;5029065;28;21028;-68
2023/03/20 07:22:07;;;;;;;2.77;1.37;;;;;;;;;;5027749;28;20434;-68
2023/03/20 07:24:34;;;;;;;1.67;1.58;;;;;;;;;;5028409;28;20430;-68
2023/03/20 07:27:01;;;;;;;1.80;1.70;;;;;;;;;;5028907;28;20782;-68
2023/03/20 07:29:29;;;;;;;2.00;1.83;;;;;;;;;;5029087;28;20513;-68
2023/03/20 07:31:56;;;;;;;3.85;2.30;;;;;;;;;;5027614;28;20429;-68
2023/03/20 07:34:23;;;;;;;1.73;1.63;;;;;;;;;;5029684;28;20431;-68
2023/03/20 07:36:50;;;;;;;4.28;2.05;;;;;;;;;;5029058;28;20430;-68
2023/03/20 07:39:17;;;;;;;2.08;1.95;;;;;;;;;;5032547;28;20437;-69
2023/03/20 07:41:45;;;;;;;2.10;2.00;;;;;;;;;;5032219;28;20442;-69
2023/03/20 07:44:13;;;;;;;1.95;1.30;;;;;;;;;;5031322;28;20450;-68
2023/03/20 07:46:40;;;;;;;2.38;1.88;;;;;;;;;;5030057;28;20558;-68
2023/03/20 07:49:07;;;;;;;1.73;1.60;;;;;;;;;;5030974;28;20489;-68
2023/03/20 07:51:35;;;;;;;3.90;2.15;;;;;;;;;;5028711;28;20434;-68
2023/03/20 07:54:05;;;;;;;5.75;2.22;;;;;;;;;;5030548;28;20569;-68
2023/03/20 07:56:32;;;;;;;3.50;1.70;;;;;;;;;;5032211;28;20894;-68
2023/03/20 07:59:02;;;;;;;1.97;1.57;;;;;;;;;;5032234;28;20439;-68
2023/03/20 08:01:29;;;;;;;4.15;1.75;;;;;;;;;;5032216;28;20442;-68
2023/03/20 08:04:00;;;;;;;2.17;2.08;;;;;;;;;;5028325;28;20458;-69
2023/03/20 08:06:27;;;;;;;4.40;2.17;;;;;;;;;;5030349;28;20983;-68
2023/03/20 08:08:54;;;;;;;1.23;1.23;;;;;;;;;;5030536;28;20517;-68
2023/03/20 08:11:21;;;;;;;2.95;2.38;;;;;;;;;;5030915;28;20442;-68
2023/03/20 08:13:49;;;;;;;1.90;1.73;;;;;;;;;;5031491;28;20529;-69
2023/03/20 08:16:16;;;;;;;2.13;2.03;;;;;;;;;;5031517;28;20433;-69
2023/03/20 08:18:43;;;;;;;0.98;0.95;;;;;;;;;;5031212;28;20438;-70
2023/03/20 08:21:10;;;;;;;3.00;1.92;;;;;;;;;;5030246;28;20431;-69
2023/03/20 08:23:38;;;;;;;2.03;1.60;;;;;;;;;;5031938;28;20442;-69
2023/03/20 08:26:05;;;;;;;6.27;1.90;;;;;;;;;;5031233;28;20438;-70
2023/03/20 08:28:40;;;;;;;4.03;2.95;;;;;;;;;;5018304;28;20439;-69
2023/03/20 08:31:16;;;;;;;4.13;2.93;;;8.40;1.00;;;;;;5011780;28;20443;-69
2023/03/20 08:33:45;;;;;;;3.22;2.72;;;9.70;99.90;;;;;;5011505;28;20433;-69
2023/03/20 08:36:14;;;;;;;4.25;2.55;;;9.70;99.90;;;;;;5016513;28;20454;-69
2023/03/20 08:38:47;;;;;;;3.55;2.38;;;9.60;99.90;;;;;;5031550;28;20493;-69
2023/03/20 08:41:17;;;;;;;4.63;2.67;;;9.60;99.90;;;;;;5030989;28;20439;-69
2023/03/20 08:43:45;;;;;;;4.70;3.03;;;9.50;99.90;;;;;;5029076;28;20434;-69
2023/03/20 08:46:11;;;;;;;3.17;2.67;;;9.50;99.90;;;;;;5029146;28;20958;-69
2023/03/20 08:48:38;;;;;;;4.88;3.33;;;9.50;99.90;;;;;;5029639;28;20439;-69
2023/03/20 08:51:06;;;;;;;5.27;4.00;;;9.50;99.90;;;;;;5030923;28;20422;-69
2023/03/20 08:53:33;;;;;;;7.68;4.53;;;9.60;99.90;;;;;;5030818;28;20913;-69
2023/03/20 08:56:03;;;;;;;7.25;3.38;;;9.70;99.90;;;;;;5028848;28;20466;-69
2023/03/20 08:58:29;;;;;;;7.38;4.30;;;9.70;99.90;;;;;;5029745;28;20434;-69
2023/03/20 09:01:08;;;;;;;8.02;4.30;;;9.80;99.90;;;;;;5029749;28;20485;-69
2023/03/20 09:03:35;;;;;;;5.95;4.20;;;9.90;99.90;;;;;;5030636;28;20525;-69
2023/03/20 09:06:07;;;;;;;4.82;2.88;;;10.00;99.90;;;;;;5028443;28;20427;-69
2023/03/20 09:08:35;;;;;;;6.90;4.10;;;10.10;99.90;;;;;;5028159;28;20517;-69
2023/03/20 09:11:02;;;;;;;8.82;5.15;;;;;;;;;;5030057;28;20458;-69
2023/03/20 09:13:31;;;;;;;8.18;4.43;;;10.30;99.90;;;;;;5030425;28;20431;-70
2023/03/20 09:15:58;;;;;;;7.50;4.15;;;;;;;;;;5028240;28;20427;-69
2023/03/20 09:18:25;;;;;;;7.38;5.00;;;10.50;99.90;;;;;;5029804;28;20906;-70
2023/03/20 09:20:52;;;;;;;10.90;4.83;;;10.70;99.90;;;;;;5030197;28;20434;-70
2023/03/20 09:23:19;;;;;;;6.53;4.63;;;10.70;99.90;;;;;;5029596;28;20438;-69
2023/03/20 09:25:46;;;;;;;8.70;5.07;;;11.00;99.90;;;;;;5028102;28;20463;-69
2023/03/20 09:28:13;;;;;;;10.43;5.43;;;11.30;99.90;;;;;;5030076;28;20462;-69
2023/03/20 09:30:44;;;;;;;8.85;6.03;;;;;;;;;;5029813;28;20430;-69
2023/03/20 09:33:13;;;;;;;3.90;3.50;;;;;;;;;;5030103;28;20438;-69
2023/03/20 09:35:41;;;;;;;9.73;5.20;;;;;;;;;;5029870;28;20427;-69
2023/03/20 09:38:11;;;;;;;7.95;3.38;;;;;;;;;;5030128;28;20435;-69
2023/03/20 09:40:44;;;;;;;6.35;4.22;;;;;;;;;;5012002;28;20440;-69
2023/03/20 09:43:31;;;;;;;12.87;4.57;;;;;;;;;;5026353;28;20438;-68
2023/03/20 09:46:13;;;;;;;5.38;3.75;;;11.50;99.90;;;;;;5028097;28;20446;-69
2023/03/20 09:48:44;;;;;;;4.32;2.83;;;;;;;;;;5029955;28;20833;-69
2023/03/20 09:51:24;;;;;;;7.65;3.03;;;;;;;;;;5029789;28;20517;-69
2023/03/20 09:54:05;;;;;;;4.97;3.05;;;14.50;99.90;;;;;;5028063;28;20433;-68
2023/03/20 09:56:33;;;;;;;2.53;2.33;;;;;;;;;;5027500;28;20469;-68
2023/03/20 09:59:02;;;;;;;2.80;1.67;;;;;;;;;;5029849;28;20435;-68
2023/03/20 10:01:49;;;;;;;1.95;1.83;;;;;;;;;;5028152;28;20462;-67
2023/03/20 10:04:17;;;;;;;5.47;1.55;;;;;;;;;;5028955;28;20446;-68
2023/03/20 10:06:44;;;;;;;2.72;1.60;;;;;;;;;;5027589;28;20435;-67
2023/03/20 10:09:21;;;;;;;2.15;1.45;;;;;;;;;;5028435;28;21152;-67
2023/03/20 10:12:01;;;;;;;2.15;1.52;;;;;;;;;;5028182;28;21001;-67
2023/03/20 10:14:48;;;;;;;2.35;1.90;;;17.00;99.90;;;;;;5029162;28;20518;-67
2023/03/20 10:17:35;;;;;;;2.78;1.83;;;15.60;99.90;;;;;;5029502;28;20431;-68
2023/03/20 10:20:20;;;;;;;3.03;2.40;;;15.10;99.90;;;;;;5029908;28;20794;-67
2023/03/20 10:22:52;;;;;;;3.13;2.05;;;14.60;99.90;;;;;;5029629;28;20436;-68
2023/03/20 10:25:39;;;;;;;3.70;2.27;;;14.20;99.90;;;;;;5027205;28;20430;-69
2023/03/20 10:28:23;;;;;;;2.50;2.25;;;14.00;99.90;;;;;;5028114;28;20435;-69
2023/03/20 10:30:49;;;;;;;2.05;1.75;;;13.80;99.90;;;;;;5028240;28;20430;-70
2023/03/20 10:33:47;;;;;;;3.30;1.55;;;13.60;99.90;;;;;;5029288;28;20431;-69
2023/03/20 10:36:37;;;;;;;3.72;2.72;;;13.50;99.90;;;;;;5029557;28;21028;-70
2023/03/20 10:39:07;;;;;;;2.60;2.30;;;14.00;99.90;;;;;;5027695;28;20441;-69
2023/03/20 10:41:40;;;;;;;3.13;2.37;;;14.40;99.90;;;;;;5029795;28;20435;-67
2023/03/20 10:44:18;;;;;;;5.57;2.10;;;14.70;99.90;;;;;;5027491;28;20443;-68
2023/03/20 10:46:50;;;;;;;5.28;1.80;;;14.80;99.90;;;;;;5029666;28;20435;-68
2023/03/20 10:49:28;;;;;;;3.33;2.03;;;14.90;99.90;;;;;;5029366;28;20997;-68
2023/03/20 10:52:00;;;;;;;2.92;2.53;;;14.80;99.90;;;;;;5029047;28;20431;-68
2023/03/20 10:54:30;;;;;;;4.13;2.33;;;14.50;99.90;;;;;;5027512;28;20448;-68
2023/03/20 10:57:00;;;;;;;4.57;2.50;;;14.50;99.90;;;;;;5029172;28;20431;-68
2023/03/20 10:59:39;;;;;;;4.68;3.10;;;14.50;99.90;;;;;;5027655;28;20441;-68
2023/03/20 11:02:18;;;;;;;2.92;2.08;;;14.60;99.90;;;;;;5029483;28;20518;-68
2023/03/20 11:04:46;;;;;;;3.17;1.90;;;14.80;99.90;;;;;;5028936;28;20446;-68
2023/03/20 11:07:34;;;;;;;3.92;1.98;;;14.90;99.90;;;;;;5026914;28;20797;-68
2023/03/20 11:10:04;;;;;;;4.70;2.30;;;14.90;99.90;;;;;;5032044;28;20458;-68
2023/03/20 11:12:45;;;;;;;2.35;2.10;;;14.80;99.90;;;;;;5033024;28;20437;-68
2023/03/20 11:15:25;;;;;;;6.25;2.72;;;14.70;99.90;;;;;;5032666;28;20430;-68
2023/03/20 11:18:00;;;;;;;3.50;2.75;;;14.60;99.90;;;;;;5031728;28;20531;-68
2023/03/20 11:20:52;;;;;;;4.50;2.23;;;14.50;99.90;;;;;;5031876;28;20458;-68
2023/03/20 11:23:29;;;;;;;4.45;1.95;;;14.60;99.90;;;;;;5031230;28;20669;-68
2023/03/20 11:25:58;;;;;;;2.72;2.13;;;14.60;99.90;;;;;;5032221;28;20489;-68
2023/03/20 11:28:38;;;;;;;5.38;2.25;;;15.00;99.90;;;;;;5031578;28;20434;-68
2023/03/20 11:31:19;;;;;;;3.25;2.63;;;15.40;99.90;;;;;;5032518;28;20766;-68
2023/03/20 11:33:51;;;;;;;3.03;2.33;;;15.40;99.90;;;;;;5029515;28;20521;-68
2023/03/20 11:36:28;;;;;;;2.65;2.03;;;15.00;99.90;;;;;;5032217;28;20450;-68
2023/03/20 11:39:22;;;;;;;3.08;2.08;;;14.80;99.90;;;;;;5032533;28;20529;-68
2023/03/20 11:41:54;;;;;;;2.58;2.20;;;15.10;99.90;;;;;;5032269;28;20909;-68
2023/03/20 11:44:34;;;;;;;3.42;2.00;;;15.50;99.90;;;;;;5032024;28;20510;-68
2023/03/20 11:47:04;;;;;;;2.53;1.95;;;16.00;99.90;;;;;;5032105;28;20442;-68
2023/03/20 11:49:44;;;;;;;2.75;1.50;;;16.00;99.90;;;;;;5029306;28;20430;-68
2023/03/20 11:52:14;;;;;;;3.25;2.13;;;16.00;99.90;;;;;;5032002;28;20827;-68
2023/03/20 11:54:51;;;;;;;2.00;1.90;;;16.20;99.90;;;;;;5032003;28;20522;-68
2023/03/20 11:57:39;;;;;;;1.85;1.67;;;16.50;99.90;;;;;;5031734;28;20433;-68
2023/03/20 12:00:48;;;;;;;1.77;1.67;;;16.40;99.90;;;;;;5030886;28;20467;-68
2023/03/20 12:03:39;;;;;;;6.77;1.70;;;16.50;99.90;;;;;;5028507;28;20534;-68
2023/03/20 12:06:12;;;;;;;0.98;0.93;;;16.70;99.90;;;;;;5027716;28;20442;-68
2023/03/20 12:08:42;;;;;;;1.35;1.25;;;16.60;99.90;;;;;;5029540;28;20454;-68
2023/03/20 12:11:55;;;;;;;0.90;0.65;;;17.00;99.90;;;;;;5028039;28;20423;-68
2023/03/20 12:14:37;;;;;;;0.60;0.60;;;;;;;;;;5019873;28;20435;-68
2023/03/20 12:17:24;;;;;;;0.73;0.73;;;;;;;;;;5029239;28;20435;-68
2023/03/20 12:19:55;;;;;;;0.40;0.40;;;;;;;;;;5028319;28;20435;-68
2023/03/20 12:22:28;;;;;;;2.30;0.65;;;;;;;;;;5028735;28;20576;-68
2023/03/20 12:25:14;;;;;;;0.50;0.50;;;;;;;;;;5026216;28;20446;-68
2023/03/20 12:27:46;;;;;;;0.43;0.43;;;;;;;;;;5029199;28;20435;-68
2023/03/20 12:30:15;;;;;;;0.38;0.38;;;;;;;;;;5027232;28;20574;-68
2023/03/20 12:32:53;;;;;;;0.43;0.43;;;;;;;;;;5028534;28;20427;-67
2023/03/20 12:35:28;;;;;;;1.10;0.63;;;;;;;;;;5028577;28;20510;-67
2023/03/20 12:37:55;;;;;;;1.60;0.73;;;;;;;;;;5025867;28;20956;-67
2023/03/20 12:40:28;;;;;;;0.80;0.80;;;;;;;;;;5010573;28;20439;-67
2023/03/20 12:43:09;;;;;;;0.45;0.45;;;;;;;;;;5019244;28;20438;-68
2023/03/20 12:45:42;;;;;;;0.60;0.60;;;;;;;;;;5031007;28;20434;-68
2023/03/20 12:48:31;;;;;;;0.50;0.45;;;;;;;;;;5031344;28;20489;-68
2023/03/20 12:51:31;;;;;;;0.60;0.60;;;;;;;;;;5030113;28;20435;-68
2023/03/20 12:54:21;;;;;;;1.60;0.57;;;;;;;;;;5038602;28;20797;-68
2023/03/20 12:56:48;;;;;;;0.68;0.68;;;;;;;;;;5028872;28;20431;-67
2023/03/20 12:59:19;;;;;;;0.40;0.40;;;;;;;;;;5030144;28;20431;-68
2023/03/20 13:01:51;;;;;;;0.77;0.77;;;;;;;;;;5029327;28;20446;-68
2023/03/20 13:04:37;;;;;;;0.57;0.50;;;;;;;;;;5030388;28;20984;-68
2023/03/20 13:07:16;;;;;;;0.50;0.50;;;;;;;;;;5030886;28;20525;-68
2023/03/20 13:09:57;;;;;;;0.57;0.57;;;;;;;;;;5029619;28;20526;-68
2023/03/20 13:12:46;;;;;;;0.63;0.63;;;;;;;;;;5027574;28;20435;-68
2023/03/20 13:15:32;;;;;;;0.43;0.43;;;;;;;;;;5029007;28;20441;-68
2023/03/20 13:18:25;;;;;;;0.70;0.70;;;;;;;;;;5028472;28;20442;-68
2023/03/20 13:20:56;;;;;;;0.90;0.90;;;;;;;;;;5010859;28;20967;-68
2023/03/20 13:23:33;;;;;;;0.80;0.80;;;;;;;;;;5010654;28;21048;-68
2023/03/20 13:26:21;;;;;;;0.38;0.38;;;;;;;;;;5010698;28;20444;-68
2023/03/20 13:29:25;;;;;;;0.60;0.60;;;17.00;99.90;;;;;;5020726;28;20435;-68
2023/03/20 13:32:02;;;;;;;0.50;0.50;;;15.80;99.90;;;;;;5029339;28;20834;-68
2023/03/20 13:34:35;;;;;;;1.60;0.50;;;15.50;99.90;;;;;;5029016;28;20427;-68
2023/03/20 13:37:25;;;;;;;0.80;0.80;;;15.90;99.90;;;;;;5028714;28;20520;-68
2023/03/20 13:40:03;;;;;;;1.05;0.77;;;16.40;99.90;;;;;;5029505;28;20474;-68
2023/03/20 13:42:54;;;;;;;0.63;0.63;;;16.20;99.90;;;;;;5030223;28;20443;-68
2023/03/20 13:45:31;;;;;;;1.50;0.55;;;16.40;99.90;;;;;;5028443;28;20434;-68
2023/03/20 13:48:22;;;;;;;1.13;0.70;;;16.00;99.90;;;;;;5030126;28;20877;-68
2023/03/20 13:51:12;;;;;;;3.63;0.73;;;16.10;99.90;;;;;;5027594;28;20442;-68
2023/03/20 13:54:00;;;;;;;1.20;1.10;;;16.20;99.90;;;;;;5029798;28;20514;-68
2023/03/20 13:56:44;;;;;;;0.70;0.70;;;16.10;99.90;;;;;;5029704;28;20445;-68